Main page
METAR-TAF:

METAR-TAF

Airports :

Sanandaj Airport

Sanandaj, Iran

latitude: 35-20N, longitude: 047-00E, elevation: 1373 m

Current weather observation

The report was made 4 hours and 39 minutes ago, at 14:00 UTC
Wind 4 kt from the North
Temperature 3°C
Humidity 52%
Pressure 1022 hPa
Visibility 10 km or more
Scattered clouds at a height of 3500 ft

METAR: OICS 251400Z 36004KT 9999 SCT035 03/M06 Q1021 A3017

Time: 22:09 (18:39 UTC)


TAF: missing

Weather observations and forecasts of more than 4000 airports (METAR and TAF reports).

The available stations are represented by yellow and red dots on the map.

Hover mouse over dot to see the name of the station.

Then click to see weather observations and forecasts.

To change the map : click on the green buttons with a black cross to zoom in, on the green button with a dash to zoom out, or on the green arrows for adjacent maps.


METAR-TAF: